createdAt,value
2023-02-12T00:01:41.004Z,48.33
2023-02-12T00:04:09.510Z,45.58
2023-02-12T00:06:40.392Z,50.22
2023-02-12T00:09:08.873Z,47.10
2023-02-12T00:11:37.635Z,48.70
2023-02-12T00:14:06.046Z,53.03
2023-02-12T00:16:34.699Z,51.80
2023-02-12T00:19:03.188Z,46.88
2023-02-12T00:21:31.921Z,46.05
2023-02-12T00:24:00.374Z,43.83
2023-02-12T00:26:29.342Z,43.33
2023-02-12T00:28:57.829Z,43.50
2023-02-12T00:31:28.951Z,46.03
2023-02-12T00:34:01.394Z,46.80
2023-02-12T00:36:31.338Z,46.65
2023-02-12T00:39:00.992Z,45.33
2023-02-12T00:41:30.162Z,39.78
2023-02-12T00:43:58.895Z,42.78
2023-02-12T00:46:28.871Z,43.15
2023-02-12T00:48:57.477Z,39.83
2023-02-12T00:51:26.336Z,41.83
2023-02-12T00:53:54.704Z,44.67
2023-02-12T00:56:23.415Z,41.38
2023-02-12T00:58:51.848Z,44.83
2023-02-12T01:01:20.542Z,44.58
2023-02-12T01:03:49.022Z,42.85
2023-02-12T01:06:17.949Z,38.97
2023-02-12T01:08:51.954Z,41.33
2023-02-12T01:11:20.829Z,43.70
2023-02-12T01:13:50.489Z,43.70
2023-02-12T01:16:24.368Z,39.15
2023-02-12T01:21:28.187Z,41.97
2023-02-12T01:23:57.366Z,42.20
2023-02-12T01:26:26.404Z,42.65
2023-02-12T01:29:03.902Z,43.15
2023-02-12T01:31:36.496Z,39.80
2023-02-12T01:34:06.003Z,45.38
2023-02-12T01:36:35.476Z,47.38
2023-02-12T01:39:06.524Z,44.65
2023-02-12T01:41:39.478Z,44.97
2023-02-12T01:44:19.554Z,43.30
2023-02-12T01:47:05.249Z,45.20
2023-02-12T01:49:42.180Z,44.80
2023-02-12T01:52:22.822Z,47.80
2023-02-12T01:54:51.380Z,52.78
2023-02-12T01:57:21.280Z,50.28
2023-02-12T01:59:51.111Z,51.83
2023-02-12T02:02:19.950Z,49.78
2023-02-12T02:05:02.377Z,47.45
2023-02-12T02:07:31.707Z,49.45
2023-02-12T02:10:00.199Z,52.78
2023-02-12T02:12:49.369Z,59.03
2023-02-12T02:15:18.739Z,50.83
2023-02-12T02:18:09.465Z,52.85
2023-02-12T02:21:24.081Z,57.67
2023-02-12T02:24:17.256Z,60.67
2023-02-12T02:27:19.574Z,50.60
2023-02-12T02:30:34.398Z,53.45
2023-02-12T02:33:32.766Z,52.17
2023-02-12T02:36:26.307Z,58.45
2023-02-12T02:39:39.074Z,58.03
2023-02-12T02:42:23.898Z,51.63
2023-02-12T02:45:38.165Z,58.15
2023-02-12T02:48:24.958Z,50.88
2023-02-12T02:51:19.386Z,51.25
2023-02-12T02:53:52.331Z,54.08
2023-02-12T02:56:21.615Z,56.22
2023-02-12T02:58:59.949Z,48.13
2023-02-12T03:01:48.337Z,58.20
2023-02-12T03:04:31.198Z,49.53
2023-02-12T03:07:04.719Z,47.58
2023-02-12T03:09:44.192Z,42.88
2023-02-12T03:12:19.776Z,54.90
2023-02-12T03:15:37.250Z,48.20
2023-02-12T03:18:10.472Z,46.53
2023-02-12T03:20:51.182Z,44.60
2023-02-12T03:23:30.099Z,49.97
2023-02-12T03:26:10.331Z,50.90
2023-02-12T03:28:39.097Z,43.83
2023-02-12T03:31:50.814Z,45.60
2023-02-12T03:34:38.679Z,46.72
2023-02-12T03:37:25.090Z,43.40
2023-02-12T03:39:59.917Z,50.90
2023-02-12T03:43:09.321Z,44.38
2023-02-12T03:46:48.233Z,49.63
2023-02-12T03:49:32.599Z,42.15
2023-02-12T03:52:01.062Z,50.20
2023-02-12T03:54:29.749Z,41.67
2023-02-12T03:57:12.679Z,40.67
2023-02-12T04:02:09.714Z,43.55
2023-02-12T04:04:38.612Z,39.95
2023-02-12T04:07:07.145Z,40.40
2023-02-12T04:09:35.845Z,44.67
2023-02-12T04:12:15.969Z,45.58
2023-02-12T04:15:06.611Z,48.13
2023-02-12T04:17:44.827Z,41.60
2023-02-12T04:21:11.992Z,43.78
2023-02-12T04:23:54.012Z,44.75
2023-02-12T04:26:57.852Z,39.35
2023-02-12T04:29:49.733Z,40.60
2023-02-12T04:32:34.577Z,40.83
2023-02-12T04:35:29.437Z,41.58
2023-02-12T04:38:08.952Z,39.88
2023-02-12T04:40:39.857Z,35.78
2023-02-12T04:43:08.892Z,38.92
2023-02-12T04:45:37.604Z,39.65
2023-02-12T04:48:06.411Z,40.53
2023-02-12T04:50:43.563Z,34.65
2023-02-12T04:53:12.226Z,37.83
2023-02-12T04:55:40.571Z,37.75
2023-02-12T04:58:09.400Z,36.67
2023-02-12T05:00:37.781Z,41.88
2023-02-12T05:03:06.551Z,41.08
2023-02-12T05:05:35.209Z,37.75
2023-02-12T05:08:03.879Z,38.85
2023-02-12T05:10:32.233Z,36.97
2023-02-12T05:13:00.949Z,34.05
2023-02-12T05:15:29.396Z,34.67
2023-02-12T05:17:58.158Z,34.67
2023-02-12T05:20:26.628Z,35.47
2023-02-12T05:22:55.961Z,35.53
2023-02-12T05:25:24.263Z,34.20
2023-02-12T05:27:52.972Z,36.15
2023-02-12T05:30:21.589Z,31.60
2023-02-12T05:32:50.280Z,35.70
2023-02-12T05:35:18.669Z,36.72
2023-02-12T05:37:47.269Z,36.22
2023-02-12T05:40:16.174Z,33.67
2023-02-12T05:42:44.937Z,34.80
2023-02-12T05:45:13.321Z,39.15
2023-02-12T05:47:42.157Z,35.25
2023-02-12T05:50:11.198Z,34.58
2023-02-12T05:52:39.882Z,34.25
2023-02-12T05:55:08.676Z,39.65
2023-02-12T05:57:37.374Z,33.83
2023-02-12T06:00:06.864Z,38.42
2023-02-12T06:02:41.033Z,37.42
2023-02-12T06:05:09.610Z,33.95
2023-02-12T06:07:38.620Z,34.05
2023-02-12T06:10:08.267Z,36.22
2023-02-12T06:12:37.341Z,36.45
2023-02-12T06:15:06.071Z,36.72
2023-02-12T06:17:35.179Z,31.02
2023-02-12T06:20:04.034Z,36.40
2023-02-12T06:22:32.869Z,33.08
2023-02-12T06:25:01.270Z,32.35
2023-02-12T06:27:30.008Z,35.40
2023-02-12T06:29:58.457Z,31.95
2023-02-12T06:32:27.202Z,36.15
2023-02-12T06:34:55.744Z,33.10
2023-02-12T06:37:24.460Z,35.33
2023-02-12T06:39:52.893Z,33.45
2023-02-12T06:42:21.564Z,33.22
2023-02-12T06:44:52.684Z,35.63
2023-02-12T06:47:21.838Z,33.78
2023-02-12T06:49:50.204Z,33.80
2023-02-12T06:52:18.907Z,35.33
2023-02-12T06:54:47.317Z,36.83
2023-02-12T06:57:16.042Z,36.28
2023-02-12T06:59:44.424Z,32.30
2023-02-12T07:02:13.108Z,31.58
2023-02-12T07:04:41.588Z,34.72
2023-02-12T07:07:10.327Z,30.80
2023-02-12T07:09:38.726Z,31.88
2023-02-12T07:12:07.635Z,33.90
2023-02-12T07:14:36.063Z,34.33
2023-02-12T07:17:05.681Z,33.13
2023-02-12T07:19:34.065Z,32.88
2023-02-12T07:22:02.791Z,35.25
2023-02-12T07:24:31.226Z,36.28
2023-02-12T07:26:59.891Z,32.22
2023-02-12T07:29:28.205Z,35.45
2023-02-12T07:31:57.078Z,32.85
2023-02-12T07:34:25.464Z,32.25
2023-02-12T07:36:54.136Z,31.42
2023-02-12T07:39:22.615Z,31.45
2023-02-12T07:41:51.329Z,40.55
2023-02-12T07:44:19.815Z,37.03
2023-02-12T07:46:49.339Z,36.30
2023-02-12T07:49:21.654Z,35.70
2023-02-12T07:51:50.616Z,33.90
2023-02-12T07:54:18.958Z,38.80
2023-02-12T07:56:47.691Z,40.33
2023-02-12T07:59:17.882Z,35.47
2023-02-12T08:01:48.962Z,44.67
2023-02-12T08:04:20.268Z,36.78
2023-02-12T08:06:51.360Z,35.85
2023-02-12T08:09:22.886Z,40.30
2023-02-12T08:11:51.775Z,35.90
2023-02-12T08:14:21.318Z,44.60
2023-02-12T08:16:50.836Z,37.88
2023-02-12T08:19:22.730Z,42.38
2023-02-12T08:21:54.484Z,42.08
2023-02-12T08:24:23.439Z,40.42
2023-02-12T08:26:52.551Z,33.88
2023-02-12T08:29:26.521Z,35.72
2023-02-12T08:32:02.787Z,34.58
2023-02-12T08:34:34.176Z,31.13
2023-02-12T08:37:03.541Z,35.00
2023-02-12T08:39:32.065Z,44.22
2023-02-12T08:42:01.774Z,33.58
2023-02-12T08:44:30.431Z,37.75
2023-02-12T08:46:59.167Z,37.17
2023-02-12T08:49:29.515Z,32.33
2023-02-12T08:51:59.179Z,41.72
2023-02-12T08:54:28.725Z,42.72
2023-02-12T08:56:58.926Z,36.95
2023-02-12T08:59:27.372Z,38.95
2023-02-12T09:01:56.068Z,38.78
2023-02-12T09:04:28.448Z,45.45
2023-02-12T09:06:57.274Z,42.80
2023-02-12T09:09:25.638Z,42.80
2023-02-12T09:11:54.356Z,46.38
2023-02-12T09:14:24.606Z,47.03
2023-02-12T09:16:54.432Z,42.17
2023-02-12T09:19:23.126Z,49.63
2023-02-12T09:21:56.413Z,52.92
2023-02-12T09:24:28.332Z,47.90
2023-02-12T09:26:57.163Z,46.30
2023-02-12T09:29:25.620Z,48.47
2023-02-12T09:31:54.625Z,50.22
2023-02-12T09:34:23.287Z,46.92
2023-02-12T09:36:52.103Z,43.88
2023-02-12T09:39:20.440Z,48.03
2023-02-12T09:42:52.554Z,46.30
2023-02-12T09:45:26.801Z,47.42
2023-02-12T09:48:07.561Z,48.28
2023-02-12T09:50:57.112Z,42.75
2023-02-12T09:53:29.843Z,43.03
2023-02-12T09:55:58.824Z,40.88
2023-02-12T09:58:37.033Z,45.75
2023-02-12T10:01:16.491Z,43.92
2023-02-12T10:03:46.496Z,41.55
2023-02-12T10:06:26.161Z,43.45
2023-02-12T10:09:35.924Z,46.25
2023-02-12T10:12:33.130Z,45.42
2023-02-12T10:15:39.503Z,39.88
2023-02-12T10:18:45.320Z,40.90
2023-02-12T10:21:45.098Z,43.45
2023-02-12T10:24:47.608Z,37.72
2023-02-12T10:27:18.299Z,42.38
2023-02-12T10:29:47.603Z,38.05
2023-02-12T10:32:31.408Z,42.28
2023-02-12T10:37:53.194Z,38.50
2023-02-12T10:40:30.139Z,42.92
2023-02-12T10:42:59.084Z,41.03
2023-02-12T10:45:35.286Z,36.20
2023-02-12T10:48:19.039Z,39.88
2023-02-12T10:51:32.613Z,41.90
2023-02-12T10:54:38.152Z,34.15
2023-02-12T10:57:24.364Z,37.55
2023-02-12T10:59:57.502Z,36.78
2023-02-12T11:02:29.770Z,36.95
2023-02-12T11:04:59.948Z,36.50
2023-02-12T11:07:28.759Z,34.17
2023-02-12T11:09:57.677Z,34.70
2023-02-12T11:12:48.742Z,37.75
2023-02-12T11:15:22.570Z,35.08
2023-02-12T11:18:05.328Z,40.63
2023-02-12T11:20:49.221Z,34.42
2023-02-12T11:23:45.664Z,29.15
2023-02-12T11:26:20.440Z,38.08
2023-02-12T11:29:16.689Z,34.47
2023-02-12T11:31:59.929Z,32.55
2023-02-12T11:34:30.152Z,34.15
2023-02-12T11:36:59.065Z,35.03
2023-02-12T11:39:39.111Z,35.53
2023-02-12T11:42:22.665Z,35.00
2023-02-12T11:44:58.485Z,32.85
2023-02-12T11:47:34.232Z,32.60
2023-02-12T11:50:29.547Z,33.00
2023-02-12T11:53:42.145Z,32.25
2023-02-12T11:56:13.948Z,37.53
2023-02-12T11:58:42.841Z,34.63
2023-02-12T12:01:30.803Z,34.50
2023-02-12T12:04:04.001Z,37.00
2023-02-12T12:06:53.847Z,33.80
2023-02-12T12:09:36.071Z,31.50
2023-02-12T12:12:14.073Z,34.10
2023-02-12T12:15:16.749Z,35.80
2023-02-12T12:18:17.984Z,33.38
2023-02-12T12:20:55.768Z,39.33
2023-02-12T12:23:41.053Z,43.10
2023-02-12T12:26:21.053Z,44.40
2023-02-12T12:29:18.961Z,42.10
2023-02-12T12:31:57.386Z,39.28
2023-02-12T12:34:27.911Z,42.33
2023-02-12T12:37:12.795Z,41.70
2023-02-12T12:39:41.592Z,39.58
2023-02-12T12:42:43.932Z,41.47
2023-02-12T12:45:43.646Z,44.25
2023-02-12T12:48:46.342Z,43.20
2023-02-12T12:51:47.586Z,51.78
2023-02-12T12:54:32.043Z,46.80
2023-02-12T12:57:40.120Z,49.03
2023-02-12T13:01:07.067Z,48.58
2023-02-12T13:03:59.363Z,49.22
2023-02-12T13:06:37.303Z,56.35
2023-02-12T13:09:24.216Z,57.55
2023-02-12T13:12:43.942Z,51.10
2023-02-12T13:15:20.532Z,51.33
2023-02-12T13:18:13.977Z,54.08
2023-02-12T13:21:18.175Z,53.58
2023-02-12T13:24:08.271Z,44.63
2023-02-12T13:26:59.436Z,44.00
2023-02-12T13:29:39.297Z,40.20
2023-02-12T13:32:29.331Z,45.72
2023-02-12T13:34:58.512Z,36.70
2023-02-12T13:37:46.895Z,32.63
2023-02-12T13:40:27.901Z,30.90
2023-02-12T13:43:28.099Z,24.80
2023-02-12T13:46:09.176Z,31.95
2023-02-12T13:49:22.406Z,26.35
2023-02-12T13:52:13.672Z,20.38
2023-02-12T13:55:01.711Z,20.63
2023-02-12T13:57:30.438Z,25.90
2023-02-12T14:00:00.051Z,22.05
2023-02-12T14:02:39.332Z,18.80
2023-02-12T14:05:29.613Z,18.60
2023-02-12T14:08:05.858Z,22.20
2023-02-12T14:10:38.360Z,22.60
2023-02-12T14:15:45.140Z,20.10
2023-02-12T14:18:36.648Z,22.58
2023-02-12T14:21:14.200Z,23.60
2023-02-12T14:23:44.960Z,22.20
2023-02-12T14:26:14.845Z,21.02
2023-02-12T14:28:55.077Z,24.73
2023-02-12T14:31:35.383Z,19.13
2023-02-12T14:34:07.850Z,21.73
2023-02-12T14:36:41.628Z,18.95
2023-02-12T14:39:22.482Z,22.55
2023-02-12T14:42:06.392Z,19.75
2023-02-12T14:44:59.158Z,21.40
2023-02-12T14:47:30.439Z,19.67
2023-02-12T14:50:20.220Z,21.85
2023-02-12T14:52:58.112Z,18.40
2023-02-12T14:55:34.540Z,19.70
2023-02-12T14:58:06.333Z,22.75
2023-02-12T15:00:40.380Z,25.65
2023-02-12T15:03:14.763Z,19.63
2023-02-12T15:05:58.151Z,20.77
2023-02-12T15:09:01.471Z,23.55
2023-02-12T15:11:47.759Z,24.63
2023-02-12T15:14:40.629Z,24.45
2023-02-12T15:17:10.284Z,22.55
2023-02-12T15:19:47.832Z,25.17
2023-02-12T15:22:42.299Z,27.60
2023-02-12T15:25:31.086Z,21.27
2023-02-12T15:28:36.641Z,24.05
2023-02-12T15:31:09.549Z,24.30
2023-02-12T15:33:45.830Z,27.10
2023-02-12T15:36:21.419Z,26.33
2023-02-12T15:38:56.272Z,23.50
2023-02-12T15:41:33.233Z,24.63
2023-02-12T15:44:04.735Z,22.30
2023-02-12T15:46:33.281Z,22.38
2023-02-12T15:49:03.583Z,22.52
2023-02-12T15:51:39.881Z,23.58
2023-02-12T15:54:08.632Z,22.63
2023-02-12T15:56:38.033Z,25.90
2023-02-12T15:59:06.923Z,20.90
2023-02-12T16:01:35.931Z,22.33
2023-02-12T16:04:06.938Z,21.50
2023-02-12T16:06:36.961Z,20.67
2023-02-12T16:09:17.290Z,19.92
2023-02-12T16:11:47.200Z,18.73
2023-02-12T16:14:35.251Z,17.80
2023-02-12T16:17:03.765Z,22.67
2023-02-12T16:19:37.283Z,17.23
2023-02-12T16:22:14.605Z,19.55
2023-02-12T16:24:53.556Z,19.95
2023-02-12T16:27:25.677Z,17.90
2023-02-12T16:30:04.461Z,16.27
2023-02-12T16:32:38.482Z,16.90
2023-02-12T16:35:10.214Z,17.13
2023-02-12T16:37:38.659Z,15.88
2023-02-12T16:40:13.258Z,15.65
2023-02-12T16:42:47.666Z,15.85
2023-02-12T16:45:28.742Z,18.02
2023-02-12T16:48:09.544Z,14.88
2023-02-12T16:50:54.573Z,18.88
2023-02-12T16:53:31.733Z,16.48
2023-02-12T16:56:01.321Z,13.27
2023-02-12T16:58:29.900Z,14.00
2023-02-12T17:00:59.137Z,13.10
2023-02-12T17:03:27.843Z,13.48
2023-02-12T17:05:57.145Z,16.17
2023-02-12T17:08:26.144Z,15.35
2023-02-12T17:10:55.070Z,15.10
2023-02-12T17:13:23.524Z,12.90
2023-02-12T17:15:58.307Z,13.57
2023-02-12T17:18:27.802Z,13.30
2023-02-12T17:21:02.236Z,14.68
2023-02-12T17:23:31.065Z,15.00
2023-02-12T17:25:59.970Z,13.18
2023-02-12T17:28:28.568Z,13.43
2023-02-12T17:30:58.474Z,14.40
2023-02-12T17:33:27.864Z,12.77
2023-02-12T17:35:58.954Z,14.60
2023-02-12T17:38:27.419Z,13.93
2023-02-12T17:40:56.624Z,26.08
2023-02-12T17:43:25.365Z,15.30
2023-02-12T17:45:54.295Z,14.30
2023-02-12T17:48:25.026Z,12.48
2023-02-12T17:50:57.155Z,11.80
2023-02-12T17:53:25.870Z,11.73
2023-02-12T17:55:54.964Z,13.95
2023-02-12T17:58:23.526Z,12.93
2023-02-12T18:00:52.449Z,14.93
2023-02-12T18:03:21.017Z,13.73
2023-02-12T18:05:49.884Z,14.20
2023-02-12T18:08:18.634Z,15.88
2023-02-12T18:10:47.516Z,10.57
2023-02-12T18:13:15.965Z,14.23
2023-02-12T18:15:44.806Z,10.48
2023-02-12T18:18:13.405Z,12.68
2023-02-12T18:20:42.297Z,12.73
2023-02-12T18:23:11.039Z,14.43
2023-02-12T18:25:43.585Z,10.18
2023-02-12T18:28:12.333Z,13.80
2023-02-12T18:30:43.381Z,11.77
2023-02-12T18:33:12.699Z,12.05
2023-02-12T18:35:41.972Z,13.32
2023-02-12T18:38:10.775Z,9.50
2023-02-12T18:40:42.429Z,10.57
2023-02-12T18:43:11.002Z,9.48
2023-02-12T18:45:40.360Z,15.55
2023-02-12T18:48:09.527Z,12.18
2023-02-12T18:50:38.761Z,8.98
2023-02-12T18:53:07.211Z,9.77
2023-02-12T18:55:39.151Z,10.05
2023-02-12T18:58:07.513Z,10.68
2023-02-12T19:00:36.521Z,9.95
2023-02-12T19:03:05.011Z,12.45
2023-02-12T19:05:33.794Z,10.38
2023-02-12T19:08:02.243Z,11.77
2023-02-12T19:10:31.172Z,10.65
2023-02-12T19:12:59.578Z,9.45
2023-02-12T19:15:28.118Z,11.63
2023-02-12T19:17:56.566Z,10.95
2023-02-12T19:20:25.095Z,10.05
2023-02-12T19:22:53.381Z,11.30
2023-02-12T19:25:22.228Z,10.63
2023-02-12T19:27:50.501Z,11.77
2023-02-12T19:30:19.702Z,10.77
2023-02-12T19:32:48.008Z,11.82
2023-02-12T19:35:16.648Z,12.68
2023-02-12T19:37:44.966Z,9.77
2023-02-12T19:40:14.339Z,15.40
2023-02-12T19:42:42.638Z,13.23
2023-02-12T19:45:11.302Z,10.65
2023-02-12T19:47:39.745Z,9.73
2023-02-12T19:50:08.873Z,9.82
2023-02-12T19:52:37.315Z,11.95
2023-02-12T19:55:06.482Z,10.48
2023-02-12T19:57:37.076Z,10.20
2023-02-12T20:00:08.498Z,11.68
2023-02-12T20:02:36.999Z,10.07
2023-02-12T20:05:06.146Z,10.77
2023-02-12T20:07:34.477Z,10.38
2023-02-12T20:10:03.378Z,9.70
2023-02-12T20:12:31.724Z,9.30
2023-02-12T20:15:02.790Z,9.77
2023-02-12T20:17:32.544Z,10.02
2023-02-12T20:20:01.296Z,8.63
2023-02-12T20:22:29.693Z,8.57
2023-02-12T20:24:59.392Z,9.57
2023-02-12T20:27:28.581Z,8.68
2023-02-12T20:29:57.345Z,10.30
2023-02-12T20:32:25.779Z,10.98
2023-02-12T20:34:54.720Z,10.27
2023-02-12T20:37:23.032Z,11.82
2023-02-12T20:39:52.130Z,11.35
2023-02-12T20:42:20.545Z,8.82
2023-02-12T20:44:49.315Z,9.15
2023-02-12T20:47:17.647Z,10.15
2023-02-12T20:49:46.368Z,12.50
2023-02-12T20:52:14.888Z,13.55
2023-02-12T20:54:43.702Z,10.20
2023-02-12T20:57:12.407Z,10.90
2023-02-12T20:59:42.441Z,8.88
2023-02-12T21:02:12.242Z,11.30
2023-02-12T21:04:41.100Z,10.57
2023-02-12T21:07:09.385Z,9.02
2023-02-12T21:09:38.013Z,10.05
2023-02-12T21:12:06.485Z,11.55
2023-02-12T21:14:35.112Z,10.40
2023-02-12T21:17:03.424Z,9.57
2023-02-12T21:19:32.181Z,9.50
2023-02-12T21:22:00.590Z,9.70
2023-02-12T21:24:29.231Z,10.60
2023-02-12T21:26:57.816Z,9.82
2023-02-12T21:29:27.644Z,11.10
2023-02-12T21:31:56.083Z,9.05
2023-02-12T21:34:24.721Z,8.38
2023-02-12T21:36:55.460Z,11.45
2023-02-12T21:39:27.788Z,9.80
2023-02-12T21:42:02.594Z,12.00
2023-02-12T21:44:32.908Z,9.43
2023-02-12T21:47:01.224Z,11.13
2023-02-12T21:49:30.000Z,9.98
2023-02-12T21:52:02.235Z,9.80
2023-02-12T21:54:31.376Z,9.10
2023-02-12T21:56:59.871Z,8.82
2023-02-12T21:59:31.755Z,8.48
2023-02-12T22:02:00.890Z,13.32
2023-02-12T22:04:30.046Z,11.40
2023-02-12T22:06:59.796Z,8.23
2023-02-12T22:09:28.366Z,11.55
2023-02-12T22:11:57.169Z,10.73
2023-02-12T22:14:25.905Z,10.43
2023-02-12T22:16:54.145Z,11.52
2023-02-12T22:19:23.014Z,9.93
2023-02-12T22:21:51.923Z,10.30
2023-02-12T22:24:20.750Z,8.20
2023-02-12T22:26:49.049Z,9.40
2023-02-12T22:29:17.972Z,7.95
2023-02-12T22:31:46.881Z,9.48
2023-02-12T22:34:17.992Z,8.85
2023-02-12T22:36:46.488Z,9.48
2023-02-12T22:39:15.568Z,9.43
2023-02-12T22:41:43.865Z,10.55
2023-02-12T22:44:13.432Z,8.48
2023-02-12T22:46:43.125Z,10.05
2023-02-12T22:49:11.862Z,9.52
2023-02-12T22:51:40.426Z,8.77
2023-02-12T22:54:13.898Z,9.07
2023-02-12T22:59:11.991Z,9.75
2023-02-12T23:01:40.589Z,9.68
2023-02-12T23:04:15.349Z,8.85
2023-02-12T23:06:44.095Z,9.43
2023-02-12T23:09:15.644Z,9.50
2023-02-12T23:11:44.156Z,9.45
2023-02-12T23:14:13.046Z,9.25
2023-02-12T23:16:41.509Z,13.10
2023-02-12T23:19:10.565Z,10.90
2023-02-12T23:21:39.180Z,10.43
2023-02-12T23:24:08.180Z,11.02
2023-02-12T23:26:36.859Z,10.18
2023-02-12T23:29:05.665Z,9.52
2023-02-12T23:31:34.297Z,9.85
2023-02-12T23:34:03.411Z,7.40
2023-02-12T23:36:31.916Z,10.77
2023-02-12T23:39:00.664Z,11.75
2023-02-12T23:41:29.140Z,9.75
2023-02-12T23:43:58.590Z,9.63
2023-02-12T23:46:27.011Z,9.15
2023-02-12T23:48:55.924Z,10.60
2023-02-12T23:51:24.474Z,8.90
2023-02-12T23:53:53.300Z,11.93
2023-02-12T23:56:21.747Z,11.27
2023-02-12T23:58:50.461Z,8.30
